Arba, Indiana
Current Conditions -  °F | °C
As of 11:15 AM on Sunday 21 Dec 2014 (Local Time) from KVES Reporting Station
Scattered Clouds Scattered Clouds  
Wind Chill: 26°   Ceiling: Unl
Heat Index: 32°   Visibility: 7mi
Dew Point: 28°   Wind: 7mph
Humidity: 87%   Direction: 170°S
Pressure: 30.29"   Gusts: NA
Location:  40.0606°N, 84.9258°W
Report Text: KVES 211615Z AUTO 17006KT 7SM SCT050 00/M02 A3029 RMK AO2
Loading
Personal Weather Stations






























Interactive Weather Map New forecast layout! Learn more

10-Day Weather Forecast

Advertisements
Track Severe Weather on mobile